ICT,Max TemperatureF,Mean TemperatureF,Min TemperatureF,Max Dew PointF,MeanDew PointF,Min DewpointF,Max Humidity, Mean Humidity, Min Humidity, Max Sea Level PressureIn, Mean Sea Level PressureIn, Min Sea Level PressureIn, Max VisibilityMiles, Mean VisibilityMiles, Min VisibilityMiles, Max Wind SpeedMPH, Mean Wind SpeedMPH, Max Gust SpeedMPH,PrecipitationIn, CloudCover, Events, WindDirDegrees
2013-9-1,88,80,72,76,74,72,95,78,58,29.92,29.84,29.77,6,6,4,13,3,,0.01,4,Rain,294
2013-9-2,87,80,72,76,74,72,96,77,62,29.92,29.87,29.78,6,6,2,12,4,,0.00,5,Rain,271
2013-9-3,87,82,76,77,75,73,94,76,64,29.92,29.86,29.77,6,6,4,14,6,,0.01,4,Rain-Thunderstorm,288
2013-9-4,88,83,78,77,75,72,84,75,60,29.89,29.84,29.76,7,6,5,15,7,,0.01,6,Rain,290
2013-9-5,88,82,77,77,74,72,94,79,66,29.89,29.82,29.76,6,5,2,16,9,,0.94,6,Rain,269
2013-9-6,84,78,72,78,74,72,94,85,74,29.92,29.86,29.78,6,4,1,14,7,,1.26,6,Rain,279
2013-9-7,87,80,74,75,73,72,89,77,66,29.92,29.86,29.79,6,6,4,23,9,,0.00,6,Rain-Thunderstorm,281
2013-9-8,86,80,75,76,73,72,94,80,66,29.92,29.87,29.80,6,5,3,15,5,,0.03,6,Rain,300
2013-9-9,86,80,75,76,73,70,94,80,70,29.92,29.86,29.78,6,5,1,20,6,,0.16,6,Rain,301
2013-9-10,84,78,71,76,73,70,94,85,70,29.89,29.81,29.74,6,4,1,23,7,26,1.06,6,Rain,284
2013-9-11,83,77,71,76,74,72,98,88,78,29.86,29.78,29.69,6,3,1,28,10,23,5.04,6,Rain,268
2013-9-12,84,79,74,77,74,72,94,85,74,29.89,29.81,29.74,5,4,2,131,10,,0.79,6,Rain,257
2013-9-13,87,80,74,75,74,72,89,77,66,29.92,29.84,29.77,6,6,3,18,7,,0.03,6,Rain,241
2013-9-14,88,82,75,76,73,70,89,76,54,29.89,29.84,29.76,6,6,5,12,3,,0.00,6,,256
2013-9-15,88,82,75,77,74,72,94,76,66,29.86,29.81,29.74,6,6,6,12,5,,0.00,6,,269
2013-9-16,88,80,73,77,74,72,94,77,58,29.89,29.82,29.75,6,5,5,12,2,,0.00,6,,254
2013-9-17,88,84,80,78,73,72,79,71,57,29.86,29.82,29.75,6,6,6,16,7,,0.00,6,,263
2013-9-18,88,85,82,77,74,72,79,71,61,29.86,29.80,29.74,6,5,5,17,10,,0.00,6,,267
2013-9-19,87,81,75,78,74,73,79,72,58,29.83,29.77,29.71,6,6,5,17,12,23,0.00,6,,258
2013-9-20,87,80,74,78,75,72,94,77,68,29.83,29.77,29.71,6,5,1,29,13,40,0.75,6,Rain,261
2013-9-21,88,82,76,79,75,73,84,73,66,29.83,29.79,29.74,6,5,5,16,11,,0.00,6,,258
2013-9-22,88,82,76,78,75,73,84,74,64,29.83,29.78,29.72,6,5,5,17,12,,0.00,6,,255
2013-9-23,89,86,82,78,75,73,79,73,54,29.83,29.77,29.71,6,6,6,16,11,,0.00,6,,251
2013-9-24,89,84,79,78,75,73,84,74,62,29.89,29.81,29.75,6,6,4,22,12,,0.08,6,,259
2013-9-25,90,82,75,77,75,73,84,73,58,29.92,29.87,29.81,6,6,5,18,12,,0.00,5,Rain,266
2013-9-26,90,84,77,76,75,73,84,74,57,29.95,29.90,29.83,6,6,4,16,11,,0.08,6,,285
2013-9-27,90,84,78,77,75,73,89,77,64,29.92,29.87,29.80,6,6,4,18,10,,0.16,6,Rain,286
2013-9-28,86,80,75,77,75,72,89,81,70,29.89,29.84,29.76,6,5,2,17,10,23,0.94,6,Rain,275
2013-9-29,87,82,76,77,75,72,94,84,74,29.86,29.80,29.74,6,4,2,23,7,24,0.63,6,Rain,264
2013-9-30,87,82,76,79,76,73,89,78,70,29.83,29.77,29.71,5,4,4,20,12,21,0.00,6,Rain,273